Time;durP1;ratioP1;P1;durP2;ratioP2;P2;SDS_P1;SDS_P2;PMS_P1;PMS_P2;Temp;Humidity;BMP_temperature;BMP_pressure;BME280_temperature;BME280_humidity;BME280_pressure;Samples;Min_cycle;Max_cycle;Signal;HPM_P1;HPM_P2
2021/03/18 00:01:10;;;;;;;41.63;39.53;;;;;;;;;;5047903;28;20033;-82
2021/03/18 00:03:38;;;;;;;42.80;40.58;;;;;;;;;;5048709;28;20029;-81
2021/03/18 00:06:05;;;;;;;41.15;39.05;;;;;;;;;;5045703;28;20576;-81
2021/03/18 00:08:33;;;;;;;42.13;40.00;;;;;;;;;;5049840;28;20497;-81
2021/03/18 00:11:01;;;;;;;45.63;42.92;;;;;;;;;;5048292;28;20064;-81
2021/03/18 00:13:30;;;;;;;43.78;41.58;;;;;;;;;;5028502;28;20478;-81
2021/03/18 00:15:57;;;;;;;43.22;41.00;;;;;;;;;;5042878;28;20042;-81
2021/03/18 00:18:27;;;;;;;42.72;40.45;;;;;;;;;;5045627;28;20383;-81
2021/03/18 00:20:54;;;;;;;44.65;42.47;;;;;;;;;;5030432;28;20057;-81
2021/03/18 00:23:21;;;;;;;44.80;42.05;;;;;;;;;;5046513;28;20535;-82
2021/03/18 00:25:48;;;;;;;47.95;44.67;;;;;;;;;;5044901;28;20076;-82
2021/03/18 00:28:15;;;;;;;52.00;48.45;;;;;;;;;;5032060;28;20041;-81
2021/03/18 00:30:42;;;;;;;48.22;45.00;;;;;;;;;;5022014;28;20061;-81
2021/03/18 00:33:09;;;;;;;52.13;48.72;;;;;;;;;;5021990;28;20037;-81
2021/03/18 00:35:36;;;;;;;46.53;44.13;;;;;;;;;;5048428;28;20374;-81
2021/03/18 00:38:03;;;;;;;45.03;42.50;;;;;;;;;;5042935;28;20045;-81
2021/03/18 00:40:33;;;;;;;45.40;42.92;;;;;;;;;;5020830;28;20037;-81
2021/03/18 00:43:04;;;;;;;45.58;43.03;;;;;;;;;;5044982;28;20565;-81
2021/03/18 00:45:32;;;;;;;44.38;42.28;;;;;;;;;;5045488;28;20037;-81
2021/03/18 00:48:00;;;;;;;44.28;41.83;;;;;;;;;;5032881;28;20127;-81
2021/03/18 00:50:30;;;;;;;48.65;45.72;;;;;;;;;;5012732;28;20043;-81
2021/03/18 00:52:57;;;;;;;49.65;46.30;;;;;;;;;;5018409;28;20044;-81
2021/03/18 00:55:25;;;;;;;48.60;45.63;;;;;;;;;;5046079;28;20080;-81
2021/03/18 00:57:52;;;;;;;48.92;46.17;;;;;;;;;;5014549;28;20421;-81
2021/03/18 01:00:21;;;;;;;50.30;47.00;;;;;;;;;;5043303;28;20037;-81
2021/03/18 01:02:50;;;;;;;47.30;44.28;;;;;;;;;;5029855;28;20079;-81
2021/03/18 01:05:19;;;;;;;48.35;44.88;;;;;;;;;;5018541;28;20055;-81
2021/03/18 01:07:47;;;;;;;51.60;48.20;;;;;;;;;;5051119;28;20497;-82
2021/03/18 01:10:15;;;;;;;50.20;46.45;;;;;;;;;;5046836;28;20044;-81
2021/03/18 01:12:42;;;;;;;50.67;47.05;;;;;;;;;;5035198;28;20086;-81
2021/03/18 01:15:10;;;;;;;45.47;42.85;;;;;;;;;;5029075;28;20083;-81
2021/03/18 01:17:37;;;;;;;50.42;47.70;;;;;;;;;;5021502;28;20045;-81
2021/03/18 01:20:06;;;;;;;46.22;43.63;;;;;;;;;;5048231;28;20116;-81
2021/03/18 01:22:33;;;;;;;44.63;41.95;;;;;;;;;;5028956;28;20041;-81
2021/03/18 01:25:00;;;;;;;40.97;38.67;;;;;;;;;;5036004;28;20565;-81
2021/03/18 01:27:27;;;;;;;42.55;40.20;;;;;;;;;;5032393;28;20033;-81
2021/03/18 01:29:54;;;;;;;44.53;42.28;;;;;;;;;;5050211;28;20079;-81
2021/03/18 01:32:33;;;;;;;42.22;40.25;;;;;;;;;;5021324;28;20123;-81
2021/03/18 01:35:00;;;;;;;46.70;44.40;;;;;;;;;;5029450;28;20044;-81
2021/03/18 01:37:27;;;;;;;46.05;43.53;;;;;;;;;;5035448;28;20068;-81
2021/03/18 01:39:55;;;;;;;43.60;41.50;;;;;;;;;;5044519;28;20410;-81
2021/03/18 01:42:23;;;;;;;42.05;40.17;;;;;;;;;;5023097;28;20068;-81
2021/03/18 01:44:50;;;;;;;43.17;40.97;;;;;;;;;;5028733;28;20061;-81
2021/03/18 01:47:17;;;;;;;44.67;42.78;;;;;;;;;;5029723;28;20049;-82
2021/03/18 01:49:45;;;;;;;47.88;44.67;;;;;;;;;;5033303;28;20053;-82
2021/03/18 01:52:12;;;;;;;47.83;45.13;;;;;;;;;;5049179;28;20582;-81
2021/03/18 01:54:39;;;;;;;44.25;41.75;;;;;;;;;;5048705;28;20041;-81
2021/03/18 01:57:06;;;;;;;47.22;44.85;;;;;;;;;;5018185;28;20061;-81
2021/03/18 01:59:33;;;;;;;43.75;41.42;;;;;;;;;;5047036;28;20067;-81
2021/03/18 02:02:01;;;;;;;48.25;45.63;;;;;;;;;;5031547;28;20045;-81
2021/03/18 02:04:28;;;;;;;46.80;44.05;;;;;;;;;;5033154;28;20040;-81
2021/03/18 02:06:55;;;;;;;46.38;43.88;;;;;;;;;;5028551;28;20057;-81
2021/03/18 02:09:23;;;;;;;48.35;45.75;;;;;;;;;;5051966;28;20056;-81
2021/03/18 02:11:50;;;;;;;45.42;43.17;;;;;;;;;;5029398;28;20100;-81
2021/03/18 02:14:17;;;;;;;47.08;44.40;;;;;;;;;;5033235;28;20091;-81
2021/03/18 02:16:47;;;;;;;47.08;44.63;;;;;;;;;;5017240;28;20052;-81
2021/03/18 02:19:34;;;;;;;43.33;41.25;;;;;;;;;;5043828;28;20482;-81
2021/03/18 02:22:20;;;;;;;48.70;46.03;;;;;;;;;;5048882;28;20044;-81
2021/03/18 02:24:56;;;;;;;47.13;44.45;;;;;;;;;;5034173;28;20094;-81
2021/03/18 02:27:23;;;;;;;46.03;43.55;;;;;;;;;;5018331;28;20378;-81
2021/03/18 02:30:09;;;;;;;47.65;44.92;;;;;;;;;;5021125;28;20383;-82
2021/03/18 02:32:36;;;;;;;44.70;42.63;;;;;;;;;;5050589;28;20059;-81
2021/03/18 02:35:27;;;;;;;42.38;40.35;;;;;;;;;;5014263;28;20041;-82
2021/03/18 02:38:00;;;;;;;43.53;41.65;;;;;;;;;;5019172;28;20045;-82
2021/03/18 02:40:30;;;;;;;45.40;43.45;;;;;;;;;;5030578;28;20553;-82
2021/03/18 02:42:59;;;;;;;44.60;42.40;;;;;;;;;;5021643;28;20026;-81
2021/03/18 02:45:31;;;;;;;40.63;38.78;;;;;;;;;;5051244;28;20033;-81
2021/03/18 02:47:59;;;;;;;42.50;40.53;;;;;;;;;;5030216;28;20398;-81
2021/03/18 02:50:28;;;;;;;43.10;41.13;;;;;;;;;;5038228;28;20033;-81
2021/03/18 02:52:55;;;;;;;36.70;35.60;;;;;;;;;;5031652;28;20131;-81
2021/03/18 02:55:24;;;;;;;39.95;38.58;;;;;;;;;;5044855;28;20037;-81
2021/03/18 02:57:52;;;;;;;37.13;35.83;;;;;;;;;;5051111;28;20041;-81
2021/03/18 03:00:20;;;;;;;41.78;39.90;;;;;;;;;;5012691;28;20141;-81
2021/03/18 03:02:48;;;;;;;42.97;41.08;;;;;;;;;;5013563;28;20088;-81
2021/03/18 03:05:18;;;;;;;43.05;40.95;;;;;;;;;;5049937;28;20040;-81
2021/03/18 03:07:45;;;;;;;44.13;41.92;;;;;;;;;;5026299;28;20075;-81
2021/03/18 03:10:13;;;;;;;45.33;43.13;;;;;;;;;;5050025;28;20044;-81
2021/03/18 03:12:40;;;;;;;44.28;42.25;;;;;;;;;;5029209;28;20096;-82
2021/03/18 03:15:08;;;;;;;44.38;42.17;;;;;;;;;;5029108;28;20453;-81
2021/03/18 03:17:35;;;;;;;43.92;41.95;;;;;;;;;;5031562;28;20708;-81
2021/03/18 03:20:07;;;;;;;42.35;40.15;;;;;;;;;;5028101;28;20593;-81
2021/03/18 03:22:35;;;;;;;42.60;40.63;;;;;;;;;;5046717;28;20083;-81
2021/03/18 03:25:04;;;;;;;43.92;41.70;;;;;;;;;;5032682;28;20490;-81
2021/03/18 03:27:31;;;;;;;42.53;40.63;;;;;;;;;;5027840;28;20148;-81
2021/03/18 03:29:59;;;;;;;43.70;41.90;;;;;;;;;;5035697;28;20037;-81
2021/03/18 03:32:26;;;;;;;44.22;42.40;;;;;;;;;;5011800;28;20048;-81
2021/03/18 03:34:57;;;;;;;41.80;40.00;;;;;;;;;;5038157;28;20580;-81
2021/03/18 03:37:25;;;;;;;43.90;41.75;;;;;;;;;;5015161;28;20087;-81
2021/03/18 03:39:52;;;;;;;42.58;40.88;;;;;;;;;;5024248;28;20514;-81
2021/03/18 03:42:19;;;;;;;41.67;40.17;;;;;;;;;;5049300;28;20592;-81
2021/03/18 03:44:46;;;;;;;42.60;40.90;;;;;;;;;;5044475;28;20517;-81
2021/03/18 03:47:13;;;;;;;42.53;41.03;;;;;;;;;;5028270;28;20037;-81
2021/03/18 03:49:42;;;;;;;41.42;39.75;;;;;;;;;;5014742;28;20045;-81
2021/03/18 03:52:12;;;;;;;38.40;36.80;;;;;;;;;;5026159;28;20491;-81
2021/03/18 03:54:43;;;;;;;40.83;38.97;;;;;;;;;;5048750;28;20052;-81
2021/03/18 03:57:15;;;;;;;41.38;39.88;;;;;;;;;;5033950;28;20072;-81
2021/03/18 03:59:44;;;;;;;41.30;39.20;;;;;;;;;;5030389;28;20041;-81
2021/03/18 04:02:12;;;;;;;43.60;41.78;;;;;;;;;;5020453;28;20482;-81
2021/03/18 04:04:40;;;;;;;43.83;42.03;;;;;;;;;;5047086;28;20458;-81
2021/03/18 04:07:27;;;;;;;43.22;40.97;;;;;;;;;;5049003;28;20526;-81
2021/03/18 04:09:56;;;;;;;40.75;39.25;;;;;;;;;;5049485;28;20045;-81
2021/03/18 04:12:26;;;;;;;41.20;39.63;;;;;;;;;;5044463;28;20037;-81
2021/03/18 04:14:57;;;;;;;41.60;40.00;;;;;;;;;;5030637;28;20041;-81
2021/03/18 04:17:25;;;;;;;42.85;41.20;;;;;;;;;;5047093;28;20060;-81
2021/03/18 04:19:54;;;;;;;40.75;39.35;;;;;;;;;;5025876;28;20065;-81
2021/03/18 04:22:22;;;;;;;39.70;38.17;;;;;;;;;;5027542;28;20042;-81
2021/03/18 04:24:50;;;;;;;41.35;39.85;;;;;;;;;;5027701;28;20025;-81
2021/03/18 04:27:18;;;;;;;40.95;39.50;;;;;;;;;;5026088;28;20123;-81
2021/03/18 04:29:46;;;;;;;40.42;38.92;;;;;;;;;;5048695;28;20045;-81
2021/03/18 04:32:13;;;;;;;42.25;40.70;;;;;;;;;;5025371;28;20052;-81
2021/03/18 04:34:53;;;;;;;40.42;38.80;;;;;;;;;;5051078;28;20048;-81
2021/03/18 04:37:21;;;;;;;40.08;38.58;;;;;;;;;;5051844;28;20063;-81
2021/03/18 04:39:48;;;;;;;41.80;40.28;;;;;;;;;;5030578;28;20048;-81
2021/03/18 04:42:16;;;;;;;42.53;41.10;;;;;;;;;;5039456;28;20038;-81
2021/03/18 04:44:45;;;;;;;42.45;40.85;;;;;;;;;;5030981;28;20060;-81
2021/03/18 04:47:16;;;;;;;42.45;40.80;;;;;;;;;;5051398;28;20068;-81
2021/03/18 04:49:45;;;;;;;45.20;43.40;;;;;;;;;;5036787;28;20363;-82
2021/03/18 04:52:13;;;;;;;43.70;41.75;;;;;;;;;;5049132;28;20119;-81
2021/03/18 04:54:55;;;;;;;44.45;42.30;;;;;;;;;;5036697;28;20122;-82
2021/03/18 04:57:23;;;;;;;47.85;45.65;;;;;;;;;;5047083;28;20133;-81
2021/03/18 04:59:51;;;;;;;45.83;43.72;;;;;;;;;;5030392;28;20055;-81
2021/03/18 05:02:20;;;;;;;44.88;43.00;;;;;;;;;;5035195;28;20049;-81
2021/03/18 05:05:00;;;;;;;42.72;40.92;;;;;;;;;;5030262;28;20052;-82
2021/03/18 05:07:29;;;;;;;44.58;42.78;;;;;;;;;;5022908;28;20434;-82
2021/03/18 05:09:56;;;;;;;43.45;41.38;;;;;;;;;;5051698;28;20041;-81
2021/03/18 05:12:23;;;;;;;42.42;40.80;;;;;;;;;;5026603;28;20655;-81
2021/03/18 05:14:50;;;;;;;44.35;42.65;;;;;;;;;;5035660;28;20080;-81
2021/03/18 05:17:18;;;;;;;45.72;43.40;;;;;;;;;;5048936;28;20080;-81
2021/03/18 05:19:45;;;;;;;43.20;41.63;;;;;;;;;;5050039;28;20452;-81
2021/03/18 05:22:12;;;;;;;46.17;44.42;;;;;;;;;;5026912;28;20056;-81
2021/03/18 05:24:40;;;;;;;44.17;42.47;;;;;;;;;;5027508;28;20037;-81
2021/03/18 05:27:07;;;;;;;44.33;42.72;;;;;;;;;;5027490;28;20049;-81
2021/03/18 05:29:35;;;;;;;45.53;43.63;;;;;;;;;;5049521;28;20087;-82
2021/03/18 05:32:02;;;;;;;48.00;45.97;;;;;;;;;;5048580;28;20079;-82
2021/03/18 05:34:29;;;;;;;45.42;43.55;;;;;;;;;;5048477;28;20544;-82
2021/03/18 05:36:56;;;;;;;48.42;45.97;;;;;;;;;;5027068;28;20083;-82
2021/03/18 05:39:23;;;;;;;46.28;44.53;;;;;;;;;;5032981;28;20526;-82
2021/03/18 05:41:50;;;;;;;45.95;43.75;;;;;;;;;;5048363;28;20041;-81
2021/03/18 05:44:17;;;;;;;50.50;47.88;;;;;;;;;;5011266;28;20461;-81
2021/03/18 05:46:45;;;;;;;49.22;46.40;;;;;;;;;;5050185;28;20041;-81
2021/03/18 05:49:13;;;;;;;48.78;46.40;;;;;;;;;;5029393;28;20521;-81
2021/03/18 05:51:41;;;;;;;49.75;47.38;;;;;;;;;;5034475;28;20040;-82
2021/03/18 05:54:09;;;;;;;45.15;43.22;;;;;;;;;;5050031;28;20106;-82
2021/03/18 05:56:36;;;;;;;45.38;43.50;;;;;;;;;;5012078;28;20049;-82
2021/03/18 05:59:03;;;;;;;46.67;44.65;;;;;;;;;;5046886;28;20094;-82
2021/03/18 06:01:30;;;;;;;44.53;42.63;;;;;;;;;;5022574;28;20049;-82
2021/03/18 06:04:04;;;;;;;47.45;45.22;;;;;;;;;;5023422;28;20080;-82
2021/03/18 06:06:31;;;;;;;45.75;43.92;;;;;;;;;;5041926;28;20037;-82
2021/03/18 06:08:58;;;;;;;43.60;42.05;;;;;;;;;;5026491;28;20052;-81
2021/03/18 06:11:26;;;;;;;46.83;43.70;;;;;;;;;;5013639;28;20442;-81
2021/03/18 06:13:53;;;;;;;41.40;39.55;;;;;;;;;;5030561;28;20037;-82
2021/03/18 06:16:20;;;;;;;43.17;41.28;;;;;;;;;;5023469;28;20064;-82
2021/03/18 06:18:48;;;;;;;42.30;40.72;;;;;;;;;;5044457;28;20052;-81
2021/03/18 06:21:15;;;;;;;39.63;38.13;;;;;;;;;;5044924;28;20528;-81
2021/03/18 06:23:42;;;;;;;41.90;40.30;;;;;;;;;;5041242;28;20147;-81
2021/03/18 06:26:09;;;;;;;44.05;41.92;;;;;;;;;;5046627;28;20063;-78
2021/03/18 06:28:36;;;;;;;41.30;39.83;;;;;;;;;;5024709;28;20063;-79
2021/03/18 06:31:05;;;;;;;41.13;39.72;;;;;;;;;;5035045;28;20474;-79
2021/03/18 06:33:32;;;;;;;40.15;38.90;;;;;;;;;;5027397;28;20425;-80
2021/03/18 06:36:24;;;;;;;41.17;39.50;;;;;;;;;;5049820;28;20041;-80
2021/03/18 06:39:10;;;;;;;40.60;38.97;;;;;;;;;;5031211;28;20041;-80
2021/03/18 06:41:44;;;;;;;39.35;38.03;;;;;;;;;;5031766;28;20029;-79
2021/03/18 06:44:22;;;;;;;39.45;38.20;;;;;;;;;;5016741;28;20045;-80
2021/03/18 06:46:52;;;;;;;43.10;41.70;;;;;;;;;;5050117;28;20516;-80
2021/03/18 06:49:21;;;;;;;40.05;38.60;;;;;;;;;;5026551;28;20044;-80
2021/03/18 06:52:08;;;;;;;37.47;36.38;;;;;;;;;;5031293;28;20057;-80
2021/03/18 06:54:42;;;;;;;37.58;36.25;;;;;;;;;;5036361;28;20060;-80
2021/03/18 06:57:18;;;;;;;75.28;67.80;;;;;;;;;;5026901;28;20053;-80
2021/03/18 06:59:45;;;;;;;39.50;38.03;;;;;;;;;;5050263;28;20075;-80
2021/03/18 07:02:13;;;;;;;153.40;114.93;;;;;;;;;;5027910;28;20068;-80
2021/03/18 07:04:41;;;;;;;49.00;46.17;;;;;;;;;;5030648;28;20155;-80
2021/03/18 07:07:09;;;;;;;43.13;41.22;;;;;;;;;;5028495;28;20045;-80
2021/03/18 07:09:57;;;;;;;38.22;36.90;;;;;;;;;;5036527;28;20499;-80
2021/03/18 07:12:27;;;;;;;41.67;39.97;;;;;;;;;;5032316;28;20587;-80
2021/03/18 07:15:00;;;;;;;41.45;39.55;;;;;;;;;;5030517;28;20103;-80
2021/03/18 07:17:28;;;;;;;44.05;41.45;;;;;;;;;;5009914;28;20401;-80
2021/03/18 07:20:28;;;;;;;38.10;36.53;;;;;;;;;;5028763;28;20034;-80
2021/03/18 07:23:11;;;;;;;39.88;38.45;;;;;;;;;;5007958;28;20064;-80
2021/03/18 07:25:45;;;;;;;41.28;39.80;;;;;;;;;;5007210;28;20061;-80
2021/03/18 07:28:14;;;;;;;41.45;39.72;;;;;;;;;;5008117;28;20443;-80
2021/03/18 07:30:42;;;;;;;38.65;37.55;;;;;;;;;;4988261;28;20177;-80
2021/03/18 07:33:09;;;;;;;38.08;36.85;;;;;;;;;;4982405;28;20551;-80
2021/03/18 07:35:40;;;;;;;38.13;36.83;;;;;;;;;;5007077;28;20561;-80
2021/03/18 07:38:06;;;;;;;37.45;36.25;;;;;;;;;;4992572;28;20096;-80
2021/03/18 07:40:33;;;;;;;36.33;35.38;;;;;;;;;;4986909;28;20605;-80
2021/03/18 07:43:01;;;;;;;33.83;32.75;;;;;;;;;;4983615;28;20042;-80
2021/03/18 07:45:28;;;;;;;30.38;29.77;;;;;;;;;;4998116;28;20586;-80
2021/03/18 07:47:56;;;;;;;31.83;30.92;;;;;;;;;;4994179;28;20038;-80
2021/03/18 07:50:28;;;;;;;35.38;33.88;;;;;;;;;;4990699;28;20046;-80
2021/03/18 07:52:56;;;;;;;33.67;32.58;;;;;;;;;;4989674;28;20061;-80
2021/03/18 07:55:23;;;;;;;39.40;38.00;;;;;;;;;;4991335;28;20092;-80
2021/03/18 07:57:51;;;;;;;37.28;35.88;;;;;;;;;;4995273;28;20137;-80
2021/03/18 08:00:20;;;;;;;36.60;34.83;;;;;;;;;;5028569;28;20602;-80
2021/03/18 08:02:48;;;;;;;38.97;37.30;;;;;;;;;;5020591;28;20041;-80
2021/03/18 08:05:34;;;;;;;37.03;35.60;;;;;;;;;;5016979;28;20041;-80
2021/03/18 08:08:03;;;;;;;38.75;37.00;;;;;;;;;;5029037;28;20049;-80
2021/03/18 08:10:50;;;;;;;35.95;34.10;;;;;;;;;;5031327;28;20033;-80
2021/03/18 08:13:31;;;;;;;39.45;37.30;;;;;;;;;;5016877;28;20045;-80
2021/03/18 08:15:58;;;;;;;32.35;31.35;;;;;;;;;;5033660;28;20462;-80
2021/03/18 08:18:25;;;;;;;31.40;30.48;;;;;;;;;;5025763;28;20409;-80
2021/03/18 08:20:52;;;;;;;27.77;27.17;;;;;;;;;;5011486;28;20053;-80
2021/03/18 08:23:25;;;;;;;9.75;9.65;;;;;;;;;;5031864;28;20076;-80
2021/03/18 08:25:52;;;;;;;8.40;8.15;;;;;;;;;;5030081;28;20029;-80
2021/03/18 08:28:40;;;;;;;20.67;20.17;;;;;;;;;;5036022;28;20092;-80
2021/03/18 08:31:08;;;;;;;26.95;26.52;;;;;;;;;;5019537;28;20511;-80
2021/03/18 08:33:56;;;;;;;28.55;28.08;;;;;;;;;;5025664;28;20041;-80
2021/03/18 08:36:23;;;;;;;27.55;27.13;;;;;;;;;;5035119;28;20082;-80
2021/03/18 08:38:51;;;;;;;29.33;28.83;;;;;;;;;;5033783;28;20095;-80
2021/03/18 08:41:25;;;;;;;29.05;28.55;;;;;;;;;;5015483;28;20103;-80
2021/03/18 08:44:10;;;;;;;28.73;28.27;;;;;;;;;;5033823;28;20037;-80
2021/03/18 08:46:42;;;;;;;28.42;28.02;;;;;;;;;;5030234;28;20077;-80
2021/03/18 08:49:21;;;;;;;29.48;28.85;;;;;;;;;;5018051;28;20038;-80
2021/03/18 08:51:49;;;;;;;29.67;29.17;;;;;;;;;;5015568;28;20148;-80
2021/03/18 08:54:34;;;;;;;31.05;30.38;;;;;;;;;;5029291;28;20042;-80
2021/03/18 08:57:02;;;;;;;32.15;31.55;;;;;;;;;;5035608;28;20052;-80
2021/03/18 08:59:29;;;;;;;28.92;28.42;;;;;;;;;;5032338;28;20045;-81
2021/03/18 09:02:07;;;;;;;30.48;29.98;;;;;;;;;;5029072;28;20038;-80
2021/03/18 09:04:37;;;;;;;32.25;31.55;;;;;;;;;;5037022;28;20045;-80
2021/03/18 09:07:05;;;;;;;27.65;27.15;;;;;;;;;;5031051;28;20117;-80
2021/03/18 09:09:32;;;;;;;25.02;24.55;;;;;;;;;;5029692;28;20046;-80
2021/03/18 09:12:00;;;;;;;29.83;29.02;;;;;;;;;;5032162;28;20087;-80
2021/03/18 09:14:27;;;;;;;28.60;27.92;;;;;;;;;;5017373;28;20137;-80
2021/03/18 09:17:05;;;;;;;21.10;20.80;;;;;;;;;;5017873;28;20050;-80
2021/03/18 09:19:38;;;;;;;8.32;8.23;;;;;;;;;;5030674;28;20104;-80
2021/03/18 09:22:05;;;;;;;9.45;9.25;;;;;;;;;;5012983;28;20060;-80
2021/03/18 09:24:35;;;;;;;7.57;7.47;;;;;;;;;;5032309;28;20045;-80
2021/03/18 09:27:07;;;;;;;6.90;6.80;;;;;;;;;;5027334;28;20503;-80
2021/03/18 09:29:34;;;;;;;13.43;13.23;;;;;;;;;;5034316;28;20045;-80
2021/03/18 09:32:08;;;;;;;21.77;21.38;;;;;;;;;;5028856;28;20099;-81
2021/03/18 09:34:35;;;;;;;18.67;18.38;;;;;;;;;;5026984;28;20104;-81
2021/03/18 09:37:04;;;;;;;23.52;23.13;;;;;;;;;;5016189;28;20043;-81
2021/03/18 09:39:31;;;;;;;23.63;23.13;;;;;;;;;;5021896;28;20046;-81
2021/03/18 09:42:01;;;;;;;23.48;22.98;;;;;;;;;;5027921;28;20038;-81
2021/03/18 09:44:30;;;;;;;7.82;7.72;;;;;;;;;;5031037;28;20038;-80
2021/03/18 09:47:01;;;;;;;8.90;8.80;;;;;;;;;;5026737;28;20471;-80
2021/03/18 09:49:31;;;;;;;6.90;6.90;;;;;;;;;;5030490;28;20044;-80
2021/03/18 09:51:59;;;;;;;6.85;6.55;;;;;;;;;;5018006;28;20042;-80
2021/03/18 09:54:27;;;;;;;5.20;5.20;;;;;;;;;;5004977;28;20088;-80
2021/03/18 09:56:58;;;;;;;5.07;5.07;;;;;;;;;;5031026;28;20041;-80
2021/03/18 09:59:25;;;;;;;5.80;5.80;;;;;;;;;;5026811;28;20457;-80
2021/03/18 10:01:52;;;;;;;5.50;5.40;;;;;;;;;;5011390;28;20860;-80
2021/03/18 10:04:21;;;;;;;7.25;7.15;;;;;;;;;;5047509;28;20053;-80
2021/03/18 10:06:53;;;;;;;4.57;4.47;;;;;;;;;;5028492;28;20038;-80
2021/03/18 10:09:25;;;;;;;5.10;4.90;;;;;;;;;;5031431;28;20124;-80
2021/03/18 10:11:55;;;;;;;4.93;4.82;;;;;;;;;;5026792;28;20049;-80
2021/03/18 10:14:35;;;;;;;5.63;5.43;;;;;;;;;;5011470;28;20054;-80
2021/03/18 10:17:10;;;;;;;6.03;5.93;;;;;;;;;;5045887;28;20144;-80
2021/03/18 10:19:39;;;;;;;4.50;4.50;;;;;;;;;;5047622;28;20087;-80
2021/03/18 10:22:07;;;;;;;4.22;4.10;;;;;;;;;;5049613;28;20045;-80
2021/03/18 10:24:35;;;;;;;4.13;4.03;;;;;;;;;;5048020;28;20473;-80
2021/03/18 10:27:12;;;;;;;4.45;4.40;;;;;;;;;;5014463;28;20041;-80
2021/03/18 10:29:40;;;;;;;4.03;4.03;;;;;;;;;;5051142;28;20045;-80
2021/03/18 10:32:14;;;;;;;3.67;3.67;;;;;;;;;;5028042;28;20500;-80
2021/03/18 10:34:52;;;;;;;4.18;4.05;;;;;;;;;;5029845;28;20041;-80
2021/03/18 10:37:25;;;;;;;4.00;4.00;;;;;;;;;;5051762;28;20045;-80
2021/03/18 10:40:15;;;;;;;3.83;3.83;;;;;;;;;;5016140;28;20049;-80
2021/03/18 10:42:43;;;;;;;3.85;3.85;;;;;;;;;;5046761;28;20126;-80
2021/03/18 10:45:17;;;;;;;4.70;4.60;;;;;;;;;;5016968;28;20053;-80
2021/03/18 10:47:44;;;;;;;3.72;3.72;;;;;;;;;;5046068;28;20048;-80
2021/03/18 10:50:13;;;;;;;4.13;3.78;;;;;;;;;;5031861;28;20037;-80
2021/03/18 10:52:40;;;;;;;3.75;3.75;;;;;;;;;;5032801;28;20192;-80
2021/03/18 10:55:08;;;;;;;3.22;3.22;;;;;;;;;;5027371;28;20037;-80
2021/03/18 10:57:35;;;;;;;3.88;3.88;;;;;;;;;;5031827;28;20425;-80
2021/03/18 11:00:07;;;;;;;3.55;3.55;;;;;;;;;;5027338;28;20116;-80
2021/03/18 11:02:34;;;;;;;3.70;3.60;;;;;;;;;;5036984;28;20033;-80
2021/03/18 11:05:02;;;;;;;3.78;3.58;;;;;;;;;;5016834;28;20059;-80
2021/03/18 11:07:30;;;;;;;4.10;4.00;;;;;;;;;;5045702;28;20033;-80
2021/03/18 11:10:06;;;;;;;3.50;3.22;;;;;;;;;;5049762;28;20440;-80
2021/03/18 11:12:34;;;;;;;3.20;3.10;;;;;;;;;;5047699;28;20072;-80
2021/03/18 11:15:01;;;;;;;2.75;2.75;;;;;;;;;;5044865;28;20140;-80
2021/03/18 11:17:28;;;;;;;3.03;3.03;;;;;;;;;;5032899;28;20052;-80
2021/03/18 11:20:28;;;;;;;2.72;2.72;;;;;;;;;;5027117;28;20091;-80
2021/03/18 11:22:55;;;;;;;3.60;3.40;;;;;;;;;;4969434;28;20512;-81
2021/03/18 11:25:22;;;;;;;2.95;2.75;;;;;;;;;;4966435;28;20050;-81
2021/03/18 11:27:53;;;;;;;2.95;2.80;;;;;;;;;;4969703;28;20038;-81
2021/03/18 11:30:36;;;;;;;2.92;2.88;;;;;;;;;;4987800;28;20038;-81
2021/03/18 11:33:08;;;;;;;2.55;2.55;;;;;;;;;;4987142;28;20083;-81
2021/03/18 11:35:36;;;;;;;2.65;2.63;;;;;;;;;;4980301;28;20092;-81
2021/03/18 11:38:04;;;;;;;2.60;2.60;;;;;;;;;;4956381;28;20105;-81
2021/03/18 11:40:35;;;;;;;3.08;3.08;;;;;;;;;;4967874;28;20046;-81
2021/03/18 11:43:03;;;;;;;2.72;2.63;;;;;;;;;;4985819;28;20035;-81
2021/03/18 11:45:30;;;;;;;2.60;2.50;;;;;;;;;;4968482;28;20109;-81
2021/03/18 11:47:57;;;;;;;2.30;2.30;;;;;;;;;;4980144;28;21375;-81
2021/03/18 11:50:25;;;;;;;2.45;2.45;;;;;;;;;;4983432;28;20043;-81
2021/03/18 11:52:53;;;;;;;2.95;2.65;;;;;;;;;;4983984;28;20141;-81
2021/03/18 11:55:20;;;;;;;2.42;2.42;;;;;;;;;;4986047;28;20780;-81
2021/03/18 11:57:47;;;;;;;2.97;2.97;;;;;;;;;;4999105;28;20056;-81
2021/03/18 12:00:15;;;;;;;3.58;3.58;;;;;;;;;;5045525;28;20036;-81
2021/03/18 12:02:42;;;;;;;3.85;3.75;;;;;;;;;;5029729;28;20029;-81
2021/03/18 12:05:13;;;;;;;3.28;3.28;;;;;;;;;;5045544;28;20043;-82
2021/03/18 12:07:41;;;;;;;2.88;2.80;;;;;;;;;;5025926;28;20637;-82
2021/03/18 12:10:08;;;;;;;3.05;2.80;;;;;;;;;;5032555;28;20041;-81
2021/03/18 12:12:35;;;;;;;3.88;3.67;;;;;;;;;;5028091;28;20045;-81
2021/03/18 12:15:03;;;;;;;4.38;4.28;;;;;;;;;;5043697;28;20034;-81
2021/03/18 12:17:31;;;;;;;2.58;2.58;;;;;;;;;;5033036;28;20046;-81
2021/03/18 12:19:58;;;;;;;2.22;2.13;;;;;;;;;;5015249;28;20069;-81
2021/03/18 12:22:25;;;;;;;4.32;2.60;;;;;;;;;;5016926;28;20072;-81
2021/03/18 12:24:52;;;;;;;2.40;2.40;;;;;;;;;;5029850;28;20073;-81
2021/03/18 12:27:19;;;;;;;2.50;2.50;;;;;;;;;;5033176;28;20061;-81
2021/03/18 12:29:46;;;;;;;2.53;2.53;;;;;;;;;;5021937;28;20564;-81
2021/03/18 12:32:14;;;;;;;3.22;2.60;;;;;;;;;;5028086;28;20041;-81
2021/03/18 12:34:41;;;;;;;3.15;3.15;;;;;;;;;;5035432;28;20041;-81
2021/03/18 12:37:08;;;;;;;1.90;1.80;;;;;;;;;;5029494;28;20042;-81
2021/03/18 12:39:35;;;;;;;2.38;2.25;;;;;;;;;;5029447;28;20653;-81
2021/03/18 12:42:02;;;;;;;2.28;2.28;;;;;;;;;;5013954;28;20060;-81
2021/03/18 12:44:29;;;;;;;1.90;1.90;;;;;;;;;;5025462;28;20075;-81
2021/03/18 12:46:56;;;;;;;1.80;1.77;;;;;;;;;;5023036;28;20044;-81
2021/03/18 12:49:23;;;;;;;1.92;1.92;;;;;;;;;;5021284;28;20490;-81
2021/03/18 12:51:50;;;;;;;2.10;2.10;;;;;;;;;;5025234;28;20471;-81
2021/03/18 12:54:17;;;;;;;2.30;2.30;;;;;;;;;;5028801;28;20052;-81
2021/03/18 12:56:44;;;;;;;3.17;3.17;;;;;;;;;;5007077;28;20164;-81
2021/03/18 12:59:11;;;;;;;3.47;3.38;;;;;;;;;;5023365;28;20061;-81
2021/03/18 13:01:38;;;;;;;2.78;2.78;;;;;;;;;;5026310;28;20029;-81
2021/03/18 13:04:07;;;;;;;3.15;3.15;;;;;;;;;;5024593;28;20502;-81
2021/03/18 13:06:35;;;;;;;2.53;2.53;;;;;;;;;;5026490;28;20033;-81
2021/03/18 13:09:02;;;;;;;3.22;3.13;;;;;;;;;;5026897;28;20042;-81
2021/03/18 13:11:35;;;;;;;3.30;3.30;;;;;;;;;;5030708;28;20570;-81
2021/03/18 13:14:02;;;;;;;3.28;3.28;;;;;;;;;;5029570;28;20048;-81
2021/03/18 13:16:29;;;;;;;4.00;3.90;;;;;;;;;;5036368;28;20069;-81
2021/03/18 13:18:59;;;;;;;5.50;5.40;;;;;;;;;;5047786;28;20041;-81
2021/03/18 13:21:27;;;;;;;3.97;3.88;;;;;;;;;;5047023;28;20041;-81
2021/03/18 13:23:55;;;;;;;4.45;4.35;;;;;;;;;;5013822;28;20029;-81
2021/03/18 13:26:22;;;;;;;3.90;3.80;;;;;;;;;;5030218;28;20044;-81
2021/03/18 13:28:49;;;;;;;3.30;3.30;;;;;;;;;;5047745;28;20034;-81
2021/03/18 13:31:16;;;;;;;2.80;2.80;;;;;;;;;;5030627;28;20140;-81
2021/03/18 13:33:49;;;;;;;3.57;3.50;;;;;;;;;;5029982;28;20045;-80
2021/03/18 13:36:16;;;;;;;2.83;2.83;;;;;;;;;;5050618;28;20045;-77
2021/03/18 13:38:43;;;;;;;27.00;24.63;;;;;;;;;;5027091;28;20116;-75
2021/03/18 13:41:10;;;;;;;3.10;3.00;;;;;;;;;;5045265;28;20120;-75
2021/03/18 13:43:37;;;;;;;3.30;3.30;;;;;;;;;;5047679;28;20037;-76
2021/03/18 13:46:13;;;;;;;3.33;3.33;;;;;;;;;;5023778;28;20034;-76
2021/03/18 13:48:41;;;;;;;3.50;3.40;;;;;;;;;;5047997;28;20092;-76
2021/03/18 13:51:08;;;;;;;2.88;2.78;;;;;;;;;;5026647;28;20040;-76
2021/03/18 13:53:35;;;;;;;3.80;3.80;;;;;;;;;;5048312;28;20079;-76
2021/03/18 13:56:03;;;;;;;12.95;12.75;;;;;;;;;;5025778;28;20044;-76
2021/03/18 13:58:30;;;;;;;17.38;17.17;;;;;;;;;;5046353;28;20032;-76
2021/03/18 14:01:00;;;;;;;11.38;11.27;;;;;;;;;;5047862;28;20044;-76
2021/03/18 14:03:28;;;;;;;20.73;20.52;;;;;;;;;;5026445;28;20034;-76
2021/03/18 14:05:56;;;;;;;21.50;21.20;;;;;;;;;;5028491;28;20037;-76
2021/03/18 14:08:23;;;;;;;21.42;21.17;;;;;;;;;;5040498;28;20430;-76
2021/03/18 14:10:50;;;;;;;21.98;21.77;;;;;;;;;;5047216;28;20088;-76
2021/03/18 14:13:17;;;;;;;24.50;23.92;;;;;;;;;;5048619;28;20041;-76
2021/03/18 14:15:46;;;;;;;24.83;24.23;;;;;;;;;;5028444;28;20064;-76
2021/03/18 14:18:14;;;;;;;22.95;22.65;;;;;;;;;;5050561;28;20037;-76
2021/03/18 14:20:43;;;;;;;24.05;23.70;;;;;;;;;;5043979;28;20052;-76
2021/03/18 14:23:11;;;;;;;22.30;22.00;;;;;;;;;;5043281;28;20047;-76
2021/03/18 14:25:38;;;;;;;21.63;21.33;;;;;;;;;;5049567;28;20037;-76
2021/03/18 14:28:06;;;;;;;16.67;16.48;;;;;;;;;;5025338;28;20103;-76
2021/03/18 14:30:36;;;;;;;5.18;5.07;;;;;;;;;;5047663;28;20025;-76
2021/03/18 14:33:17;;;;;;;6.80;6.70;;;;;;;;;;5029057;28;20052;-75
2021/03/18 14:35:49;;;;;;;4.10;4.10;;;;;;;;;;5020505;28;20120;-75
2021/03/18 14:38:16;;;;;;;3.80;3.80;;;;;;;;;;5030301;28;20110;-75
2021/03/18 14:40:44;;;;;;;4.28;4.28;;;;;;;;;;5028954;28;20052;-75